sensor_id;sensor_type;location;lat;lon;timestamp;temperature;humidity
44427;DHT22;30133;47.866;-4.222;2024-03-02T00:01:14;14.40;66.80
44427;DHT22;30133;47.866;-4.222;2024-03-02T00:03:39;14.40;66.80
44427;DHT22;30133;47.866;-4.222;2024-03-02T00:06:07;14.40;66.80
44427;DHT22;30133;47.866;-4.222;2024-03-02T00:08:33;14.40;66.70
44427;DHT22;30133;47.866;-4.222;2024-03-02T00:11:00;14.50;66.70
44427;DHT22;30133;47.866;-4.222;2024-03-02T00:13:26;14.50;66.60
44427;DHT22;30133;47.866;-4.222;2024-03-02T00:15:56;14.40;66.70
44427;DHT22;30133;47.866;-4.222;2024-03-02T00:18:27;14.40;66.70
44427;DHT22;30133;47.866;-4.222;2024-03-02T00:20:56;14.40;66.70
44427;DHT22;30133;47.866;-4.222;2024-03-02T00:23:33;14.40;66.70
44427;DHT22;30133;47.866;-4.222;2024-03-02T00:26:00;14.40;66.70
44427;DHT22;30133;47.866;-4.222;2024-03-02T00:28:34;14.30;66.70
44427;DHT22;30133;47.866;-4.222;2024-03-02T00:33:42;14.40;66.70
44427;DHT22;30133;47.866;-4.222;2024-03-02T00:36:09;14.40;66.60
44427;DHT22;30133;47.866;-4.222;2024-03-02T00:38:51;14.40;66.60
44427;DHT22;30133;47.866;-4.222;2024-03-02T00:44:00;14.40;66.60
44427;DHT22;30133;47.866;-4.222;2024-03-02T00:46:29;14.30;66.60
44427;DHT22;30133;47.866;-4.222;2024-03-02T00:49:02;14.30;66.70
44427;DHT22;30133;47.866;-4.222;2024-03-02T00:51:33;14.30;66.70
44427;DHT22;30133;47.866;-4.222;2024-03-02T00:54:02;14.40;66.70
44427;DHT22;30133;47.866;-4.222;2024-03-02T00:56:30;14.30;66.60
44427;DHT22;30133;47.866;-4.222;2024-03-02T00:58:56;14.40;66.60
44427;DHT22;30133;47.866;-4.222;2024-03-02T01:01:29;14.40;66.60
44427;DHT22;30133;47.866;-4.222;2024-03-02T01:03:54;14.40;66.60
44427;DHT22;30133;47.866;-4.222;2024-03-02T01:06:20;14.40;66.50
44427;DHT22;30133;47.866;-4.222;2024-03-02T01:08:47;14.40;66.50
44427;DHT22;30133;47.866;-4.222;2024-03-02T01:11:16;14.40;66.50
44427;DHT22;30133;47.866;-4.222;2024-03-02T01:13:44;14.40;66.50
44427;DHT22;30133;47.866;-4.222;2024-03-02T01:16:09;14.40;66.40
44427;DHT22;30133;47.866;-4.222;2024-03-02T01:18:35;14.40;66.40
44427;DHT22;30133;47.866;-4.222;2024-03-02T01:21:01;14.40;66.30
44427;DHT22;30133;47.866;-4.222;2024-03-02T01:23:27;14.40;66.40
44427;DHT22;30133;47.866;-4.222;2024-03-02T01:25:59;14.40;66.50
44427;DHT22;30133;47.866;-4.222;2024-03-02T01:28:25;14.30;66.40
44427;DHT22;30133;47.866;-4.222;2024-03-02T01:30:51;14.40;66.40
44427;DHT22;30133;47.866;-4.222;2024-03-02T01:33:17;14.30;66.40
44427;DHT22;30133;47.866;-4.222;2024-03-02T01:35:43;14.40;66.30
44427;DHT22;30133;47.866;-4.222;2024-03-02T01:38:09;14.40;66.40
44427;DHT22;30133;47.866;-4.222;2024-03-02T01:40:36;14.30;66.40
44427;DHT22;30133;47.866;-4.222;2024-03-02T01:43:03;14.30;66.40
44427;DHT22;30133;47.866;-4.222;2024-03-02T01:45:29;14.40;66.40
44427;DHT22;30133;47.866;-4.222;2024-03-02T01:47:55;14.30;66.40
44427;DHT22;30133;47.866;-4.222;2024-03-02T01:50:28;14.30;66.40
44427;DHT22;30133;47.866;-4.222;2024-03-02T01:52:57;14.40;66.40
44427;DHT22;30133;47.866;-4.222;2024-03-02T01:55:23;14.40;66.30
44427;DHT22;30133;47.866;-4.222;2024-03-02T01:57:50;14.30;66.30
44427;DHT22;30133;47.866;-4.222;2024-03-02T02:00:22;14.30;66.30
44427;DHT22;30133;47.866;-4.222;2024-03-02T02:02:50;14.40;66.30
44427;DHT22;30133;47.866;-4.222;2024-03-02T02:05:17;14.30;66.30
44427;DHT22;30133;47.866;-4.222;2024-03-02T02:07:43;14.40;66.30
44427;DHT22;30133;47.866;-4.222;2024-03-02T02:10:10;14.30;66.30
44427;DHT22;30133;47.866;-4.222;2024-03-02T02:12:36;14.40;66.30
44427;DHT22;30133;47.866;-4.222;2024-03-02T02:15:03;14.40;66.20
44427;DHT22;30133;47.866;-4.222;2024-03-02T02:17:29;14.40;66.20
44427;DHT22;30133;47.866;-4.222;2024-03-02T02:19:55;14.40;66.20
44427;DHT22;30133;47.866;-4.222;2024-03-02T02:22:21;14.40;66.20
44427;DHT22;30133;47.866;-4.222;2024-03-02T02:24:46;14.40;66.20
44427;DHT22;30133;47.866;-4.222;2024-03-02T02:27:19;14.40;66.20
44427;DHT22;30133;47.866;-4.222;2024-03-02T02:29:45;14.30;66.20
44427;DHT22;30133;47.866;-4.222;2024-03-02T02:32:10;14.40;66.20
44427;DHT22;30133;47.866;-4.222;2024-03-02T02:34:36;14.40;66.20
44427;DHT22;30133;47.866;-4.222;2024-03-02T02:37:02;14.40;66.20
44427;DHT22;30133;47.866;-4.222;2024-03-02T02:39:28;14.40;66.10
44427;DHT22;30133;47.866;-4.222;2024-03-02T02:41:53;14.40;66.10
44427;DHT22;30133;47.866;-4.222;2024-03-02T02:44:19;14.40;66.10
44427;DHT22;30133;47.866;-4.222;2024-03-02T02:46:45;14.40;66.00
44427;DHT22;30133;47.866;-4.222;2024-03-02T02:49:11;14.40;65.90
44427;DHT22;30133;47.866;-4.222;2024-03-02T02:51:37;14.40;66.00
44427;DHT22;30133;47.866;-4.222;2024-03-02T02:54:02;14.40;65.90
44427;DHT22;30133;47.866;-4.222;2024-03-02T02:56:28;14.40;65.80
44427;DHT22;30133;47.866;-4.222;2024-03-02T02:58:54;14.50;65.80
44427;DHT22;30133;47.866;-4.222;2024-03-02T03:01:20;14.50;65.90
44427;DHT22;30133;47.866;-4.222;2024-03-02T03:03:46;14.40;65.90
44427;DHT22;30133;47.866;-4.222;2024-03-02T03:06:12;14.40;65.90
44427;DHT22;30133;47.866;-4.222;2024-03-02T03:08:38;14.40;66.00
44427;DHT22;30133;47.866;-4.222;2024-03-02T03:11:04;14.40;65.90
44427;DHT22;30133;47.866;-4.222;2024-03-02T03:13:31;14.40;66.00
44427;DHT22;30133;47.866;-4.222;2024-03-02T03:15:57;14.30;66.00
44427;DHT22;30133;47.866;-4.222;2024-03-02T03:18:23;14.30;66.00
44427;DHT22;30133;47.866;-4.222;2024-03-02T03:20:49;14.40;66.00
44427;DHT22;30133;47.866;-4.222;2024-03-02T03:23:15;14.40;65.90
44427;DHT22;30133;47.866;-4.222;2024-03-02T03:25:43;14.40;65.10
44427;DHT22;30133;47.866;-4.222;2024-03-02T03:28:16;14.40;65.10
44427;DHT22;30133;47.866;-4.222;2024-03-02T03:30:41;14.40;65.50
44427;DHT22;30133;47.866;-4.222;2024-03-02T03:33:08;14.40;65.80
44427;DHT22;30133;47.866;-4.222;2024-03-02T03:35:34;14.40;65.90
44427;DHT22;30133;47.866;-4.222;2024-03-02T03:38:00;14.30;66.00
44427;DHT22;30133;47.866;-4.222;2024-03-02T03:40:26;14.30;66.00
44427;DHT22;30133;47.866;-4.222;2024-03-02T03:42:52;14.30;66.00
44427;DHT22;30133;47.866;-4.222;2024-03-02T03:45:18;14.30;66.00
44427;DHT22;30133;47.866;-4.222;2024-03-02T03:47:44;14.30;65.80
44427;DHT22;30133;47.866;-4.222;2024-03-02T03:50:10;14.40;65.90
44427;DHT22;30133;47.866;-4.222;2024-03-02T03:52:36;14.30;65.90
44427;DHT22;30133;47.866;-4.222;2024-03-02T03:55:02;14.40;66.00
44427;DHT22;30133;47.866;-4.222;2024-03-02T03:57:28;14.40;65.90
44427;DHT22;30133;47.866;-4.222;2024-03-02T03:59:53;14.30;65.90
44427;DHT22;30133;47.866;-4.222;2024-03-02T04:02:19;14.30;65.90
44427;DHT22;30133;47.866;-4.222;2024-03-02T04:04:45;14.40;66.00
44427;DHT22;30133;47.866;-4.222;2024-03-02T04:07:11;14.30;66.00
44427;DHT22;30133;47.866;-4.222;2024-03-02T04:09:37;14.40;65.90
44427;DHT22;30133;47.866;-4.222;2024-03-02T04:12:03;14.40;66.00
44427;DHT22;30133;47.866;-4.222;2024-03-02T04:14:29;14.30;65.80
44427;DHT22;30133;47.866;-4.222;2024-03-02T04:16:55;14.30;65.80
44427;DHT22;30133;47.866;-4.222;2024-03-02T04:19:21;14.40;65.90
44427;DHT22;30133;47.866;-4.222;2024-03-02T04:21:46;14.30;65.90
44427;DHT22;30133;47.866;-4.222;2024-03-02T04:24:12;14.40;66.00
44427;DHT22;30133;47.866;-4.222;2024-03-02T04:26:38;14.40;65.90
44427;DHT22;30133;47.866;-4.222;2024-03-02T04:29:10;14.40;66.00
44427;DHT22;30133;47.866;-4.222;2024-03-02T04:31:36;14.40;66.00
44427;DHT22;30133;47.866;-4.222;2024-03-02T04:34:01;14.40;65.90
44427;DHT22;30133;47.866;-4.222;2024-03-02T04:36:28;14.40;66.00
44427;DHT22;30133;47.866;-4.222;2024-03-02T04:38:54;14.40;65.80
44427;DHT22;30133;47.866;-4.222;2024-03-02T04:41:20;14.40;65.80
44427;DHT22;30133;47.866;-4.222;2024-03-02T04:43:45;14.40;65.90
44427;DHT22;30133;47.866;-4.222;2024-03-02T04:46:11;14.40;66.00
44427;DHT22;30133;47.866;-4.222;2024-03-02T04:48:37;14.30;66.10
44427;DHT22;30133;47.866;-4.222;2024-03-02T04:51:03;14.30;65.70
44427;DHT22;30133;47.866;-4.222;2024-03-02T04:53:29;14.20;65.70
44427;DHT22;30133;47.866;-4.222;2024-03-02T04:55:54;14.20;65.80
44427;DHT22;30133;47.866;-4.222;2024-03-02T04:58:20;14.20;65.90
44427;DHT22;30133;47.866;-4.222;2024-03-02T05:00:46;14.20;66.00
44427;DHT22;30133;47.866;-4.222;2024-03-02T05:03:12;14.20;65.20
44427;DHT22;30133;47.866;-4.222;2024-03-02T05:05:38;14.10;65.10
44427;DHT22;30133;47.866;-4.222;2024-03-02T05:08:04;14.10;63.90
44427;DHT22;30133;47.866;-4.222;2024-03-02T05:10:30;14.00;64.30
44427;DHT22;30133;47.866;-4.222;2024-03-02T05:12:56;13.90;64.40
44427;DHT22;30133;47.866;-4.222;2024-03-02T05:15:22;13.80;64.80
44427;DHT22;30133;47.866;-4.222;2024-03-02T05:17:48;13.70;65.20
44427;DHT22;30133;47.866;-4.222;2024-03-02T05:20:14;13.70;64.60
44427;DHT22;30133;47.866;-4.222;2024-03-02T05:22:40;13.60;65.10
44427;DHT22;30133;47.866;-4.222;2024-03-02T05:25:06;13.60;65.30
44427;DHT22;30133;47.866;-4.222;2024-03-02T05:27:32;13.50;65.50
44427;DHT22;30133;47.866;-4.222;2024-03-02T05:30:05;13.40;66.00
44427;DHT22;30133;47.866;-4.222;2024-03-02T05:32:32;13.40;65.70
44427;DHT22;30133;47.866;-4.222;2024-03-02T05:34:58;13.30;66.00
44427;DHT22;30133;47.866;-4.222;2024-03-02T05:37:23;13.40;67.20
44427;DHT22;30133;47.866;-4.222;2024-03-02T05:39:49;13.50;66.80
44427;DHT22;30133;47.866;-4.222;2024-03-02T05:42:15;13.50;66.90
44427;DHT22;30133;47.866;-4.222;2024-03-02T05:44:42;13.60;66.20
44427;DHT22;30133;47.866;-4.222;2024-03-02T05:47:08;13.50;66.00
44427;DHT22;30133;47.866;-4.222;2024-03-02T05:49:34;13.50;65.90
44427;DHT22;30133;47.866;-4.222;2024-03-02T05:52:00;13.50;65.80
44427;DHT22;30133;47.866;-4.222;2024-03-02T05:54:26;13.40;65.70
44427;DHT22;30133;47.866;-4.222;2024-03-02T05:56:52;13.30;65.60
44427;DHT22;30133;47.866;-4.222;2024-03-02T05:59:18;13.30;65.50
44427;DHT22;30133;47.866;-4.222;2024-03-02T06:01:50;13.40;65.50
44427;DHT22;30133;47.866;-4.222;2024-03-02T06:04:18;13.30;65.30
44427;DHT22;30133;47.866;-4.222;2024-03-02T06:06:44;13.30;66.10
44427;DHT22;30133;47.866;-4.222;2024-03-02T06:09:10;13.40;67.00
44427;DHT22;30133;47.866;-4.222;2024-03-02T06:11:40;13.60;67.00
44427;DHT22;30133;47.866;-4.222;2024-03-02T06:14:07;13.60;66.90
44427;DHT22;30133;47.866;-4.222;2024-03-02T06:16:33;13.70;66.70
44427;DHT22;30133;47.866;-4.222;2024-03-02T06:19:00;13.70;65.80
44427;DHT22;30133;47.866;-4.222;2024-03-02T06:21:26;13.70;65.50
44427;DHT22;30133;47.866;-4.222;2024-03-02T06:23:53;13.70;65.40
44427;DHT22;30133;47.866;-4.222;2024-03-02T06:26:19;13.60;64.70
44427;DHT22;30133;47.866;-4.222;2024-03-02T06:28:45;13.60;65.00
44427;DHT22;30133;47.866;-4.222;2024-03-02T06:31:18;13.50;65.10
44427;DHT22;30133;47.866;-4.222;2024-03-02T06:33:44;13.40;65.10
44427;DHT22;30133;47.866;-4.222;2024-03-02T06:36:09;13.30;65.10
44427;DHT22;30133;47.866;-4.222;2024-03-02T06:38:37;13.30;65.10
44427;DHT22;30133;47.866;-4.222;2024-03-02T06:41:03;13.20;65.40
44427;DHT22;30133;47.866;-4.222;2024-03-02T06:43:29;13.20;65.40
44427;DHT22;30133;47.866;-4.222;2024-03-02T06:45:54;13.20;65.60
44427;DHT22;30133;47.866;-4.222;2024-03-02T06:48:20;13.10;66.20
44427;DHT22;30133;47.866;-4.222;2024-03-02T06:50:50;13.10;65.70
44427;DHT22;30133;47.866;-4.222;2024-03-02T06:53:16;13.10;66.10
44427;DHT22;30133;47.866;-4.222;2024-03-02T06:55:46;13.00;66.20
44427;DHT22;30133;47.866;-4.222;2024-03-02T06:58:15;13.00;66.00
44427;DHT22;30133;47.866;-4.222;2024-03-02T07:00:42;13.00;66.40
44427;DHT22;30133;47.866;-4.222;2024-03-02T07:03:09;12.90;66.20
44427;DHT22;30133;47.866;-4.222;2024-03-02T07:05:35;12.90;66.10
44427;DHT22;30133;47.866;-4.222;2024-03-02T07:08:01;12.90;66.60
44427;DHT22;30133;47.866;-4.222;2024-03-02T07:10:28;12.90;66.20
44427;DHT22;30133;47.866;-4.222;2024-03-02T07:12:54;12.90;66.00
44427;DHT22;30133;47.866;-4.222;2024-03-02T07:15:19;12.90;66.20
44427;DHT22;30133;47.866;-4.222;2024-03-02T07:17:55;12.90;66.10
44427;DHT22;30133;47.866;-4.222;2024-03-02T07:20:21;12.80;66.60
44427;DHT22;30133;47.866;-4.222;2024-03-02T07:22:46;12.80;66.20
44427;DHT22;30133;47.866;-4.222;2024-03-02T07:25:12;12.80;66.50
44427;DHT22;30133;47.866;-4.222;2024-03-02T07:27:39;12.80;66.90
44427;DHT22;30133;47.866;-4.222;2024-03-02T07:30:06;12.90;66.30
44427;DHT22;30133;47.866;-4.222;2024-03-02T07:32:38;13.00;66.20
44427;DHT22;30133;47.866;-4.222;2024-03-02T07:35:05;12.90;65.90
44427;DHT22;30133;47.866;-4.222;2024-03-02T07:37:30;12.90;65.90
44427;DHT22;30133;47.866;-4.222;2024-03-02T07:39:56;12.90;66.40
44427;DHT22;30133;47.866;-4.222;2024-03-02T07:42:22;12.90;66.30
44427;DHT22;30133;47.866;-4.222;2024-03-02T07:44:48;12.90;66.10
44427;DHT22;30133;47.866;-4.222;2024-03-02T07:47:14;12.90;66.30
44427;DHT22;30133;47.866;-4.222;2024-03-02T07:49:40;12.80;65.90
44427;DHT22;30133;47.866;-4.222;2024-03-02T07:52:05;12.90;66.10
44427;DHT22;30133;47.866;-4.222;2024-03-02T07:54:34;12.80;66.40
44427;DHT22;30133;47.866;-4.222;2024-03-02T07:57:00;12.80;66.10
44427;DHT22;30133;47.866;-4.222;2024-03-02T07:59:34;12.80;66.70
44427;DHT22;30133;47.866;-4.222;2024-03-02T08:02:00;12.70;66.70
44427;DHT22;30133;47.866;-4.222;2024-03-02T08:04:26;12.70;66.50
44427;DHT22;30133;47.866;-4.222;2024-03-02T08:06:52;12.70;66.60
44427;DHT22;30133;47.866;-4.222;2024-03-02T08:09:18;12.70;66.30
44427;DHT22;30133;47.866;-4.222;2024-03-02T08:11:43;12.70;66.80
44427;DHT22;30133;47.866;-4.222;2024-03-02T08:14:09;12.70;66.90
44427;DHT22;30133;47.866;-4.222;2024-03-02T08:16:35;12.70;66.70
44427;DHT22;30133;47.866;-4.222;2024-03-02T08:19:01;12.70;66.80
44427;DHT22;30133;47.866;-4.222;2024-03-02T08:21:27;12.70;66.70
44427;DHT22;30133;47.866;-4.222;2024-03-02T08:23:56;12.70;66.90
44427;DHT22;30133;47.866;-4.222;2024-03-02T08:26:22;12.70;66.60
44427;DHT22;30133;47.866;-4.222;2024-03-02T08:28:48;12.60;66.80
44427;DHT22;30133;47.866;-4.222;2024-03-02T08:31:14;12.60;66.70
44427;DHT22;30133;47.866;-4.222;2024-03-02T08:33:47;12.60;67.00
44427;DHT22;30133;47.866;-4.222;2024-03-02T08:36:13;12.60;66.80
44427;DHT22;30133;47.866;-4.222;2024-03-02T08:38:38;12.60;66.60
44427;DHT22;30133;47.866;-4.222;2024-03-02T08:41:04;12.50;66.60
44427;DHT22;30133;47.866;-4.222;2024-03-02T08:43:31;12.60;66.80
44427;DHT22;30133;47.866;-4.222;2024-03-02T08:45:56;12.60;66.50
44427;DHT22;30133;47.866;-4.222;2024-03-02T08:48:22;12.60;66.40
44427;DHT22;30133;47.866;-4.222;2024-03-02T08:50:48;12.60;66.70
44427;DHT22;30133;47.866;-4.222;2024-03-02T08:53:14;12.60;66.40
44427;DHT22;30133;47.866;-4.222;2024-03-02T08:55:47;12.60;66.60
44427;DHT22;30133;47.866;-4.222;2024-03-02T08:58:13;12.60;66.50
44427;DHT22;30133;47.866;-4.222;2024-03-02T09:00:38;12.50;66.60
44427;DHT22;30133;47.866;-4.222;2024-03-02T09:03:04;12.60;66.60
44427;DHT22;30133;47.866;-4.222;2024-03-02T09:05:32;12.60;66.50
44427;DHT22;30133;47.866;-4.222;2024-03-02T09:07:58;12.60;66.70
44427;DHT22;30133;47.866;-4.222;2024-03-02T09:10:24;12.70;66.60
44427;DHT22;30133;47.866;-4.222;2024-03-02T09:12:50;12.60;66.30
44427;DHT22;30133;47.866;-4.222;2024-03-02T09:15:16;12.60;66.60
44427;DHT22;30133;47.866;-4.222;2024-03-02T09:17:41;12.70;66.60
44427;DHT22;30133;47.866;-4.222;2024-03-02T09:20:08;12.70;66.10
44427;DHT22;30133;47.866;-4.222;2024-03-02T09:22:33;12.80;66.00
44427;DHT22;30133;47.866;-4.222;2024-03-02T09:24:59;12.90;65.10
44427;DHT22;30133;47.866;-4.222;2024-03-02T09:27:25;12.90;65.60
44427;DHT22;30133;47.866;-4.222;2024-03-02T09:29:51;13.00;65.10
44427;DHT22;30133;47.866;-4.222;2024-03-02T09:32:16;13.10;64.80
44427;DHT22;30133;47.866;-4.222;2024-03-02T09:34:49;13.20;64.50
44427;DHT22;30133;47.866;-4.222;2024-03-02T09:37:15;13.20;64.10
44427;DHT22;30133;47.866;-4.222;2024-03-02T09:39:43;13.30;63.70
44427;DHT22;30133;47.866;-4.222;2024-03-02T09:42:10;13.30;63.40
44427;DHT22;30133;47.866;-4.222;2024-03-02T09:44:37;13.50;62.90
44427;DHT22;30133;47.866;-4.222;2024-03-02T09:47:03;13.50;62.80
44427;DHT22;30133;47.866;-4.222;2024-03-02T09:49:29;13.70;63.30
44427;DHT22;30133;47.866;-4.222;2024-03-02T09:51:54;13.70;62.80
44427;DHT22;30133;47.866;-4.222;2024-03-02T09:54:21;13.70;62.90
44427;DHT22;30133;47.866;-4.222;2024-03-02T09:56:47;13.70;62.30
44427;DHT22;30133;47.866;-4.222;2024-03-02T09:59:13;13.80;61.90
44427;DHT22;30133;47.866;-4.222;2024-03-02T10:01:58;13.80;62.20
44427;DHT22;30133;47.866;-4.222;2024-03-02T10:04:26;13.80;61.70
44427;DHT22;30133;47.866;-4.222;2024-03-02T10:07:10;13.80;61.50
44427;DHT22;30133;47.866;-4.222;2024-03-02T10:09:39;13.80;61.30
44427;DHT22;30133;47.866;-4.222;2024-03-02T10:12:07;13.90;61.50
44427;DHT22;30133;47.866;-4.222;2024-03-02T10:14:33;13.90;61.20
44427;DHT22;30133;47.866;-4.222;2024-03-02T10:17:07;14.00;61.90
44427;DHT22;30133;47.866;-4.222;2024-03-02T10:19:34;14.00;61.10
44427;DHT22;30133;47.866;-4.222;2024-03-02T10:22:08;14.00;61.10
44427;DHT22;30133;47.866;-4.222;2024-03-02T10:24:42;14.00;60.90
44427;DHT22;30133;47.866;-4.222;2024-03-02T10:27:14;14.00;60.30
44427;DHT22;30133;47.866;-4.222;2024-03-02T10:29:40;14.10;60.20
44427;DHT22;30133;47.866;-4.222;2024-03-02T10:32:10;14.00;60.30
44427;DHT22;30133;47.866;-4.222;2024-03-02T10:34:39;13.90;60.30
44427;DHT22;30133;47.866;-4.222;2024-03-02T10:37:11;13.80;60.70
44427;DHT22;30133;47.866;-4.222;2024-03-02T10:39:38;13.90;60.00
44427;DHT22;30133;47.866;-4.222;2024-03-02T10:42:08;14.00;60.10
44427;DHT22;30133;47.866;-4.222;2024-03-02T10:44:34;14.00;61.00
44427;DHT22;30133;47.866;-4.222;2024-03-02T10:47:04;14.10;60.90
44427;DHT22;30133;47.866;-4.222;2024-03-02T10:49:31;14.20;61.20
44427;DHT22;30133;47.866;-4.222;2024-03-02T10:51:58;14.20;61.30
44427;DHT22;30133;47.866;-4.222;2024-03-02T10:54:24;14.30;61.10
44427;DHT22;30133;47.866;-4.222;2024-03-02T10:56:58;14.30;60.30
44427;DHT22;30133;47.866;-4.222;2024-03-02T10:59:35;14.40;60.20
44427;DHT22;30133;47.866;-4.222;2024-03-02T11:02:04;14.40;59.10
44427;DHT22;30133;47.866;-4.222;2024-03-02T11:04:31;14.30;59.70
44427;DHT22;30133;47.866;-4.222;2024-03-02T11:07:02;14.30;59.20
44427;DHT22;30133;47.866;-4.222;2024-03-02T11:09:28;14.40;60.60
44427;DHT22;30133;47.866;-4.222;2024-03-02T11:12:09;14.40;59.80
44427;DHT22;30133;47.866;-4.222;2024-03-02T11:14:41;14.30;58.20
44427;DHT22;30133;47.866;-4.222;2024-03-02T11:17:11;14.30;58.50
44427;DHT22;30133;47.866;-4.222;2024-03-02T11:19:39;14.20;58.70
44427;DHT22;30133;47.866;-4.222;2024-03-02T11:22:06;14.20;59.00
44427;DHT22;30133;47.866;-4.222;2024-03-02T11:24:32;14.20;59.20
44427;DHT22;30133;47.866;-4.222;2024-03-02T11:27:03;14.10;59.20
44427;DHT22;30133;47.866;-4.222;2024-03-02T11:32:22;14.20;60.90
44427;DHT22;30133;47.866;-4.222;2024-03-02T11:34:51;14.30;60.90
44427;DHT22;30133;47.866;-4.222;2024-03-02T11:37:24;14.40;60.80
44427;DHT22;30133;47.866;-4.222;2024-03-02T11:39:51;14.40;60.90
44427;DHT22;30133;47.866;-4.222;2024-03-02T11:42:17;14.50;60.90
44427;DHT22;30133;47.866;-4.222;2024-03-02T11:44:45;14.50;60.80
44427;DHT22;30133;47.866;-4.222;2024-03-02T11:47:14;14.60;61.00
44427;DHT22;30133;47.866;-4.222;2024-03-02T11:49:45;14.60;60.90
44427;DHT22;30133;47.866;-4.222;2024-03-02T11:52:13;14.60;60.80
44427;DHT22;30133;47.866;-4.222;2024-03-02T11:54:42;14.70;60.80
44427;DHT22;30133;47.866;-4.222;2024-03-02T11:57:15;14.70;60.90
44427;DHT22;30133;47.866;-4.222;2024-03-02T11:59:41;14.70;60.80
44427;DHT22;30133;47.866;-4.222;2024-03-02T12:02:16;14.70;60.90
44427;DHT22;30133;47.866;-4.222;2024-03-02T12:04:46;14.70;60.90
44427;DHT22;30133;47.866;-4.222;2024-03-02T12:07:18;14.80;60.80
44427;DHT22;30133;47.866;-4.222;2024-03-02T12:09:45;14.80;60.30
44427;DHT22;30133;47.866;-4.222;2024-03-02T12:12:11;14.80;60.30
44427;DHT22;30133;47.866;-4.222;2024-03-02T12:14:38;14.90;60.40
44427;DHT22;30133;47.866;-4.222;2024-03-02T12:17:06;14.90;60.60
44427;DHT22;30133;47.866;-4.222;2024-03-02T12:19:33;14.90;60.50
44427;DHT22;30133;47.866;-4.222;2024-03-02T12:22:00;15.00;60.50
44427;DHT22;30133;47.866;-4.222;2024-03-02T12:24:29;15.00;60.70
44427;DHT22;30133;47.866;-4.222;2024-03-02T12:26:55;15.00;60.80
44427;DHT22;30133;47.866;-4.222;2024-03-02T12:29:22;15.00;60.90
44427;DHT22;30133;47.866;-4.222;2024-03-02T12:31:52;15.00;61.00
44427;DHT22;30133;47.866;-4.222;2024-03-02T12:34:19;14.90;61.10
44427;DHT22;30133;47.866;-4.222;2024-03-02T12:36:51;14.90;61.30
44427;DHT22;30133;47.866;-4.222;2024-03-02T12:39:25;14.90;61.50
44427;DHT22;30133;47.866;-4.222;2024-03-02T12:41:52;14.80;61.30
44427;DHT22;30133;47.866;-4.222;2024-03-02T12:44:19;14.80;61.40
44427;DHT22;30133;47.866;-4.222;2024-03-02T12:46:46;14.80;61.60
44427;DHT22;30133;47.866;-4.222;2024-03-02T12:49:16;14.80;61.70
44427;DHT22;30133;47.866;-4.222;2024-03-02T12:51:42;14.80;61.80
44427;DHT22;30133;47.866;-4.222;2024-03-02T12:54:11;14.80;61.70
44427;DHT22;30133;47.866;-4.222;2024-03-02T12:56:37;14.80;61.60
44427;DHT22;30133;47.866;-4.222;2024-03-02T12:59:04;14.80;61.70
44427;DHT22;30133;47.866;-4.222;2024-03-02T13:01:31;14.90;61.80
44427;DHT22;30133;47.866;-4.222;2024-03-02T13:03:58;14.80;61.80
44427;DHT22;30133;47.866;-4.222;2024-03-02T13:06:25;14.80;61.60
44427;DHT22;30133;47.866;-4.222;2024-03-02T13:08:54;14.80;61.90
44427;DHT22;30133;47.866;-4.222;2024-03-02T13:11:22;14.80;62.10
44427;DHT22;30133;47.866;-4.222;2024-03-02T13:13:48;14.80;62.00
44427;DHT22;30133;47.866;-4.222;2024-03-02T13:16:15;14.80;62.20
44427;DHT22;30133;47.866;-4.222;2024-03-02T13:18:44;14.80;62.20
44427;DHT22;30133;47.866;-4.222;2024-03-02T13:21:10;14.80;61.90
44427;DHT22;30133;47.866;-4.222;2024-03-02T13:23:36;14.80;62.40
44427;DHT22;30133;47.866;-4.222;2024-03-02T13:26:02;14.80;62.30
44427;DHT22;30133;47.866;-4.222;2024-03-02T13:28:28;14.90;62.40
44427;DHT22;30133;47.866;-4.222;2024-03-02T13:30:54;14.90;62.40
44427;DHT22;30133;47.866;-4.222;2024-03-02T13:33:20;14.90;62.50
44427;DHT22;30133;47.866;-4.222;2024-03-02T13:35:53;14.90;62.20
44427;DHT22;30133;47.866;-4.222;2024-03-02T13:38:20;14.90;62.50
44427;DHT22;30133;47.866;-4.222;2024-03-02T13:40:52;14.80;61.80
44427;DHT22;30133;47.866;-4.222;2024-03-02T13:43:18;14.80;63.00
44427;DHT22;30133;47.866;-4.222;2024-03-02T13:45:44;14.80;63.00
44427;DHT22;30133;47.866;-4.222;2024-03-02T13:48:10;14.80;63.00
44427;DHT22;30133;47.866;-4.222;2024-03-02T13:50:36;14.80;63.00
44427;DHT22;30133;47.866;-4.222;2024-03-02T13:53:02;14.80;63.10
44427;DHT22;30133;47.866;-4.222;2024-03-02T13:55:28;14.80;63.00
44427;DHT22;30133;47.866;-4.222;2024-03-02T13:57:54;14.80;63.10
44427;DHT22;30133;47.866;-4.222;2024-03-02T14:00:20;14.80;62.70
44427;DHT22;30133;47.866;-4.222;2024-03-02T14:02:46;14.80;63.20
44427;DHT22;30133;47.866;-4.222;2024-03-02T14:05:15;14.80;63.00
44427;DHT22;30133;47.866;-4.222;2024-03-02T14:07:41;14.80;63.20
44427;DHT22;30133;47.866;-4.222;2024-03-02T14:10:07;14.80;63.10
44427;DHT22;30133;47.866;-4.222;2024-03-02T14:12:33;14.80;63.30
44427;DHT22;30133;47.866;-4.222;2024-03-02T14:14:59;14.80;63.40
44427;DHT22;30133;47.866;-4.222;2024-03-02T14:17:28;14.80;63.20
44427;DHT22;30133;47.866;-4.222;2024-03-02T14:19:54;14.80;63.30
44427;DHT22;30133;47.866;-4.222;2024-03-02T14:22:20;14.80;63.20
44427;DHT22;30133;47.866;-4.222;2024-03-02T14:24:46;14.90;63.10
44427;DHT22;30133;47.866;-4.222;2024-03-02T14:27:13;14.80;63.20
44427;DHT22;30133;47.866;-4.222;2024-03-02T14:29:40;14.80;62.90
44427;DHT22;30133;47.866;-4.222;2024-03-02T14:32:06;14.80;63.70
44427;DHT22;30133;47.866;-4.222;2024-03-02T14:34:33;14.80;63.80
44427;DHT22;30133;47.866;-4.222;2024-03-02T14:36:59;14.80;63.70
44427;DHT22;30133;47.866;-4.222;2024-03-02T14:39:26;14.80;63.80
44427;DHT22;30133;47.866;-4.222;2024-03-02T14:41:58;14.80;63.70
44427;DHT22;30133;47.866;-4.222;2024-03-02T14:44:24;14.90;63.70
44427;DHT22;30133;47.866;-4.222;2024-03-02T14:46:50;14.80;63.70
44427;DHT22;30133;47.866;-4.222;2024-03-02T14:49:16;14.80;63.70
44427;DHT22;30133;47.866;-4.222;2024-03-02T14:51:42;14.90;63.80
44427;DHT22;30133;47.866;-4.222;2024-03-02T14:54:08;14.90;63.90
44427;DHT22;30133;47.866;-4.222;2024-03-02T14:56:34;14.90;63.70
44427;DHT22;30133;47.866;-4.222;2024-03-02T14:58:59;14.90;63.60
44427;DHT22;30133;47.866;-4.222;2024-03-02T15:01:25;14.90;63.80
44427;DHT22;30133;47.866;-4.222;2024-03-02T15:03:51;14.90;63.20
44427;DHT22;30133;47.866;-4.222;2024-03-02T15:06:32;14.90;63.90
44427;DHT22;30133;47.866;-4.222;2024-03-02T15:09:11;14.90;63.90
44427;DHT22;30133;47.866;-4.222;2024-03-02T15:11:38;14.90;63.90
44427;DHT22;30133;47.866;-4.222;2024-03-02T15:14:04;15.00;64.10
44427;DHT22;30133;47.866;-4.222;2024-03-02T15:16:30;14.90;64.00
44427;DHT22;30133;47.866;-4.222;2024-03-02T15:18:56;15.00;64.10
44427;DHT22;30133;47.866;-4.222;2024-03-02T15:21:21;14.90;63.70
44427;DHT22;30133;47.866;-4.222;2024-03-02T15:23:47;14.80;64.40